Nortonville, Kansas
Current Conditions -  °F | °C
As of 5:52 AM on Thursday 23 Oct 2014 (Local Time) from KLWC Reporting Station
Light Rain Light Rain  
Wind Chill: 16°   Ceiling: 8000
Heat Index: 16°   Visibility: 2.5mi
Dew Point: 14°   Wind: 7mph
Humidity: 93%   Direction: 240°WSW
Pressure: 30.11"   Gusts: NA
Location:  39.42°N, 95.33°W
Report Text: KLWC 231052Z AUTO 24006KT 2 1/2SM -RA BR BKN080 OVC090 16/14 A3011 RMK AO2 LTG DSNT W SLP193 P0013 T01560144
Loading
Personal Weather Stations






























Interactive Weather Map
Tropical Storm Tracking
New forecast layout! Learn more

10-Day Weather Forecast

Advertisements
Track Severe Weather on mobile